createdAt,value
2018-04-11T00:00:08.751Z,29.20
2018-04-11T00:02:36.033Z,50.27
2018-04-11T00:05:03.330Z,33.30
2018-04-11T00:07:30.632Z,37.43
2018-04-11T00:09:57.917Z,33.77
2018-04-11T00:12:25.221Z,44.63
2018-04-11T00:14:52.498Z,41.90
2018-04-11T00:17:19.781Z,41.27
2018-04-11T00:19:47.105Z,34.30
2018-04-11T00:22:14.520Z,31.07
2018-04-11T00:24:41.794Z,35.53
2018-04-11T00:27:09.091Z,34.93
2018-04-11T00:29:36.352Z,35.33
2018-04-11T00:32:03.654Z,36.60
2018-04-11T00:34:31.046Z,40.10
2018-04-11T00:36:58.316Z,34.60
2018-04-11T00:39:25.629Z,38.63
2018-04-11T00:41:52.914Z,36.63
2018-04-11T00:44:20.192Z,38.83
2018-04-11T00:46:47.497Z,40.67
2018-04-11T00:49:14.782Z,42.23
2018-04-11T00:51:42.074Z,38.00
2018-04-11T00:54:09.361Z,40.73
2018-04-11T00:56:36.671Z,41.60
2018-04-11T00:59:03.964Z,39.57
2018-04-11T01:01:31.305Z,40.97
2018-04-11T01:03:58.598Z,36.73
2018-04-11T01:06:25.921Z,40.60
2018-04-11T01:08:53.194Z,40.20
2018-04-11T01:11:20.477Z,42.20
2018-04-11T01:13:47.762Z,39.60
2018-04-11T01:16:15.061Z,36.03
2018-04-11T01:18:42.352Z,45.00
2018-04-11T01:21:09.658Z,38.63
2018-04-11T01:23:36.952Z,38.23
2018-04-11T01:26:04.320Z,36.40
2018-04-11T01:28:31.592Z,35.30
2018-04-11T01:30:58.895Z,39.43
2018-04-11T01:33:26.204Z,39.00
2018-04-11T01:35:54.210Z,35.10
2018-04-11T01:38:21.485Z,34.17
2018-04-11T01:40:48.793Z,39.37
2018-04-11T01:43:16.076Z,32.97
2018-04-11T01:45:43.349Z,32.00
2018-04-11T01:48:10.637Z,31.93
2018-04-11T01:50:37.911Z,31.47
2018-04-11T01:53:05.210Z,34.00
2018-04-11T01:55:32.513Z,29.83
2018-04-11T01:57:59.785Z,30.00
2018-04-11T02:00:27.068Z,35.93
2018-04-11T02:02:54.345Z,30.43
2018-04-11T02:05:21.662Z,29.23
2018-04-11T02:07:48.940Z,29.67
2018-04-11T02:10:16.228Z,33.90
2018-04-11T02:12:43.584Z,30.97
2018-04-11T02:15:10.847Z,33.87
2018-04-11T02:17:38.133Z,32.80
2018-04-11T02:20:06.248Z,35.67
2018-04-11T02:22:33.557Z,37.57
2018-04-11T02:25:00.864Z,34.13
2018-04-11T02:27:28.138Z,36.93
2018-04-11T02:29:55.440Z,33.10
2018-04-11T02:32:22.713Z,37.10
2018-04-11T02:34:50.025Z,32.87
2018-04-11T02:37:17.307Z,29.37
2018-04-11T02:39:44.601Z,31.77
2018-04-11T02:42:11.894Z,32.00
2018-04-11T02:44:39.869Z,36.90
2018-04-11T02:47:07.157Z,32.73
2018-04-11T02:49:34.446Z,31.43
2018-04-11T02:52:01.754Z,35.70
2018-04-11T02:54:29.140Z,28.93
2018-04-11T02:56:56.384Z,29.17
2018-04-11T02:59:23.668Z,31.30
2018-04-11T03:01:50.947Z,29.33
2018-04-11T03:04:18.299Z,34.80
2018-04-11T03:06:45.594Z,29.93
2018-04-11T03:09:12.898Z,30.23
2018-04-11T03:11:40.180Z,34.33
2018-04-11T03:14:07.463Z,37.13
2018-04-11T03:16:34.768Z,30.87
2018-04-11T03:19:02.037Z,25.57
2018-04-11T03:21:29.330Z,27.73
2018-04-11T03:23:56.633Z,25.93
2018-04-11T03:26:23.931Z,25.80
2018-04-11T03:28:51.217Z,27.80
2018-04-11T03:31:18.543Z,27.77
2018-04-11T03:33:45.868Z,30.53
2018-04-11T03:36:13.147Z,37.63
2018-04-11T03:38:40.436Z,29.43
2018-04-11T03:41:07.722Z,25.23
2018-04-11T03:43:35.012Z,27.87
2018-04-11T03:46:02.316Z,24.80
2018-04-11T03:48:29.612Z,30.80
2018-04-11T03:50:56.910Z,22.93
2018-04-11T03:53:24.193Z,25.70
2018-04-11T03:55:51.490Z,24.47
2018-04-11T03:58:18.797Z,24.53
2018-04-11T04:00:46.094Z,23.03
2018-04-11T04:03:13.390Z,21.53
2018-04-11T04:05:40.676Z,20.83
2018-04-11T04:08:07.971Z,26.33
2018-04-11T04:10:35.247Z,22.83
2018-04-11T04:13:02.554Z,25.60
2018-04-11T04:15:35.655Z,30.37
2018-04-11T04:18:09.249Z,27.47
2018-04-11T04:20:36.540Z,17.77
2018-04-11T04:23:03.848Z,19.70
2018-04-11T04:25:31.134Z,23.37
2018-04-11T04:27:58.437Z,19.30
2018-04-11T04:30:25.720Z,18.73
2018-04-11T04:32:53.004Z,21.40
2018-04-11T04:35:20.284Z,26.20
2018-04-11T04:37:47.581Z,26.00
2018-04-11T04:40:14.860Z,24.83
2018-04-11T04:42:42.161Z,25.13
2018-04-11T04:45:09.445Z,43.03
2018-04-11T04:47:36.725Z,22.20
2018-04-11T04:50:04.065Z,24.90
2018-04-11T04:52:32.116Z,30.03
2018-04-11T04:54:59.437Z,27.17
2018-04-11T04:57:27.499Z,35.90
2018-04-11T04:59:54.791Z,25.37
2018-04-11T05:02:22.082Z,25.50
2018-04-11T05:04:49.660Z,27.73
2018-04-11T05:07:16.981Z,31.17
2018-04-11T05:09:44.282Z,28.40
2018-04-11T05:12:11.576Z,36.00
2018-04-11T05:14:38.898Z,30.10
2018-04-11T05:17:06.172Z,24.73
2018-04-11T05:19:33.490Z,26.53
2018-04-11T05:22:01.323Z,27.53
2018-04-11T05:24:28.586Z,22.60
2018-04-11T05:26:55.877Z,27.00
2018-04-11T05:29:23.158Z,37.33
2018-04-11T05:31:51.186Z,34.63
2018-04-11T05:34:18.514Z,30.50
2018-04-11T05:36:46.544Z,28.70
2018-04-11T05:39:15.046Z,32.60
2018-04-11T05:41:42.318Z,29.37
2018-04-11T05:44:11.062Z,29.93
2018-04-11T05:46:38.958Z,37.33
2018-04-11T05:49:06.262Z,30.27
2018-04-11T05:51:33.594Z,32.00
2018-04-11T05:54:00.911Z,30.67
2018-04-11T05:56:28.191Z,29.17
2018-04-11T05:58:55.471Z,29.90
2018-04-11T06:01:23.459Z,30.30
2018-04-11T06:06:24.435Z,29.93
2018-04-11T06:08:51.710Z,33.97
2018-04-11T06:11:19.013Z,34.20
2018-04-11T06:13:46.390Z,26.17
2018-04-11T06:16:13.674Z,33.20
2018-04-11T06:18:40.979Z,24.03
2018-04-11T06:21:08.383Z,28.70
2018-04-11T06:23:35.792Z,35.40
2018-04-11T06:26:03.089Z,27.50
2018-04-11T06:28:30.490Z,21.07
2018-04-11T06:30:57.810Z,18.83
2018-04-11T06:33:25.093Z,20.00
2018-04-11T06:35:52.486Z,27.50
2018-04-11T06:38:19.781Z,19.27
2018-04-11T06:40:47.088Z,21.57
2018-04-11T06:43:14.381Z,42.77
2018-04-11T06:45:42.295Z,13.53
2018-04-11T06:48:09.577Z,15.73
2018-04-11T06:50:36.856Z,19.50
2018-04-11T06:53:04.169Z,17.80
2018-04-11T06:55:31.594Z,10.00
2018-04-11T06:58:00.015Z,14.83
2018-04-11T07:00:27.397Z,15.33
2018-04-11T07:02:54.718Z,16.10
2018-04-11T07:05:21.990Z,13.90
2018-04-11T07:07:49.306Z,12.80
2018-04-11T07:10:17.010Z,12.00
2018-04-11T07:12:44.271Z,15.27
2018-04-11T07:15:12.106Z,13.10
2018-04-11T07:17:39.388Z,11.43
2018-04-11T07:20:06.685Z,10.90
2018-04-11T07:22:34.421Z,8.40
2018-04-11T07:25:01.762Z,14.17
2018-04-11T07:27:29.047Z,9.70
2018-04-11T07:29:56.333Z,10.23
2018-04-11T07:32:24.574Z,16.80
2018-04-11T07:34:51.937Z,19.23
2018-04-11T07:37:19.204Z,10.37
2018-04-11T07:39:47.403Z,9.30
2018-04-11T07:42:14.680Z,9.03
2018-04-11T07:44:41.949Z,9.57
2018-04-11T07:47:09.231Z,11.17
2018-04-11T07:49:36.526Z,14.97
2018-04-11T07:52:03.846Z,14.60
2018-04-11T07:54:31.214Z,15.23
2018-04-11T07:56:58.849Z,11.60
2018-04-11T07:59:26.152Z,11.60
2018-04-11T08:01:53.443Z,15.93
2018-04-11T08:04:20.731Z,13.53
2018-04-11T08:06:48.011Z,22.23
2018-04-11T08:09:15.276Z,14.20
2018-04-11T08:11:42.588Z,10.87
2018-04-11T08:14:10.517Z,23.83
2018-04-11T08:16:37.821Z,17.20
2018-04-11T08:19:05.161Z,14.10
2018-04-11T08:21:32.526Z,16.13
2018-04-11T08:23:59.432Z,14.30
2018-04-11T08:26:26.710Z,11.20
2018-04-11T08:28:54.040Z,16.67
2018-04-11T08:31:21.313Z,15.33
2018-04-11T08:33:48.614Z,14.23
2018-04-11T08:36:15.905Z,14.57
2018-04-11T08:38:42.773Z,18.70
2018-04-11T08:41:10.078Z,11.57
2018-04-11T08:43:37.367Z,20.10
2018-04-11T08:46:04.687Z,13.70
2018-04-11T08:48:31.993Z,12.30
2018-04-11T08:50:59.276Z,13.43
2018-04-11T08:53:26.565Z,14.53
2018-04-11T08:55:53.909Z,12.87
2018-04-11T08:58:21.200Z,15.63
2018-04-11T09:00:48.519Z,10.30
2018-04-11T09:03:15.775Z,12.03
2018-04-11T09:05:43.080Z,19.37
2018-04-11T09:08:10.395Z,12.60
2018-04-11T09:10:37.652Z,16.63
2018-04-11T09:13:04.944Z,9.60
2018-04-11T09:15:32.281Z,11.33
2018-04-11T09:18:00.070Z,12.20
2018-04-11T09:20:27.392Z,8.67
2018-04-11T09:22:54.672Z,16.27
2018-04-11T09:25:21.953Z,13.53
2018-04-11T09:27:49.237Z,9.60
2018-04-11T09:30:16.511Z,10.27
2018-04-11T09:32:43.806Z,11.83
2018-04-11T09:35:11.089Z,10.63
2018-04-11T09:37:38.381Z,17.90
2018-04-11T09:40:05.754Z,10.47
2018-04-11T09:42:33.140Z,11.13
2018-04-11T09:45:00.437Z,7.63
2018-04-11T09:47:27.727Z,8.73
2018-04-11T09:49:54.984Z,9.60
2018-04-11T09:52:23.164Z,7.27
2018-04-11T09:54:50.439Z,10.80
2018-04-11T09:57:17.727Z,8.73
2018-04-11T09:59:45.000Z,9.60
2018-04-11T10:02:17.939Z,12.03
2018-04-11T10:04:45.421Z,10.33
2018-04-11T10:07:13.576Z,27.47
2018-04-11T10:09:42.302Z,13.90
2018-04-11T10:12:09.574Z,12.07
2018-04-11T10:14:36.879Z,11.10
2018-04-11T10:17:04.149Z,6.27
2018-04-11T10:19:31.478Z,15.00
2018-04-11T10:21:58.769Z,9.47
2018-04-11T10:24:26.075Z,7.57
2018-04-11T10:26:53.439Z,9.13
2018-04-11T10:29:20.721Z,12.53
2018-04-11T10:31:48.047Z,7.40
2018-04-11T10:34:15.678Z,9.40
2018-04-11T10:36:43.607Z,7.70
2018-04-11T10:39:10.863Z,7.30
2018-04-11T10:41:38.141Z,18.57
2018-04-11T10:44:05.445Z,13.20
2018-04-11T10:46:32.743Z,8.63
2018-04-11T10:49:00.092Z,13.60
2018-04-11T10:51:27.357Z,11.27
2018-04-11T10:53:55.341Z,9.33
2018-04-11T10:56:22.638Z,11.07
2018-04-11T10:58:49.916Z,8.50
2018-04-11T11:01:18.132Z,10.77
2018-04-11T11:03:45.398Z,9.90
2018-04-11T11:06:12.685Z,11.27
2018-04-11T11:08:40.000Z,6.70
2018-04-11T11:11:07.751Z,7.47
2018-04-11T11:13:35.040Z,8.07
2018-04-11T11:16:02.347Z,8.83
2018-04-11T11:18:29.686Z,13.00
2018-04-11T11:20:56.996Z,10.63
2018-04-11T11:23:24.631Z,12.30
2018-04-11T11:25:51.945Z,33.53
2018-04-11T11:28:19.265Z,17.43
2018-04-11T11:30:46.534Z,10.47
2018-04-11T11:33:13.823Z,10.60
2018-04-11T11:35:41.100Z,8.23
2018-04-11T11:38:08.388Z,12.53
2018-04-11T11:40:35.660Z,7.93
2018-04-11T11:43:02.954Z,15.17
2018-04-11T11:45:30.213Z,9.97
2018-04-11T11:47:57.504Z,10.73
2018-04-11T11:50:24.785Z,10.30
2018-04-11T11:52:52.067Z,19.90
2018-04-11T11:55:19.368Z,16.23
2018-04-11T11:57:46.636Z,28.23
2018-04-11T12:00:13.956Z,7.40
2018-04-11T12:02:41.242Z,6.20
2018-04-11T12:05:08.518Z,5.60
2018-04-11T12:07:35.797Z,5.77
2018-04-11T12:10:03.105Z,8.10
2018-04-11T12:12:30.393Z,25.13
2018-04-11T12:14:57.661Z,10.73
2018-04-11T12:17:24.944Z,6.10
2018-04-11T12:19:52.222Z,6.17
2018-04-11T12:22:19.525Z,15.87
2018-04-11T12:24:47.336Z,6.33
2018-04-11T12:27:14.607Z,9.80
2018-04-11T12:29:41.900Z,10.13
2018-04-11T12:32:09.241Z,11.17
2018-04-11T12:34:36.513Z,16.23
2018-04-11T12:37:03.837Z,14.33
2018-04-11T12:39:31.080Z,8.27
2018-04-11T12:41:58.369Z,9.27
2018-04-11T12:44:25.648Z,11.77
2018-04-11T12:46:52.946Z,5.70
2018-04-11T12:49:20.220Z,7.27
2018-04-11T12:51:47.503Z,8.57
2018-04-11T12:54:14.840Z,10.50
2018-04-11T12:56:42.119Z,6.03
2018-04-11T12:59:09.394Z,6.33
2018-04-11T13:01:36.683Z,6.50
2018-04-11T13:04:03.941Z,7.07
2018-04-11T13:06:31.233Z,12.70
2018-04-11T13:08:58.493Z,4.23
2018-04-11T13:11:25.783Z,5.33
2018-04-11T13:13:53.040Z,7.10
2018-04-11T13:16:20.325Z,5.77
2018-04-11T13:18:47.597Z,8.20
2018-04-11T13:21:15.510Z,7.00
2018-04-11T13:23:42.858Z,4.50
2018-04-11T13:26:10.122Z,6.20
2018-04-11T13:28:37.408Z,4.10
2018-04-11T13:31:04.702Z,5.47
2018-04-11T13:33:31.993Z,7.03
2018-04-11T13:35:59.298Z,7.23
2018-04-11T13:38:26.612Z,46.83
2018-04-11T13:40:54.830Z,14.00
2018-04-11T13:43:22.111Z,9.70
2018-04-11T13:45:49.426Z,4.70
2018-04-11T13:48:16.702Z,6.33
2018-04-11T13:50:43.976Z,11.50
2018-04-11T13:53:11.276Z,15.80
2018-04-11T13:55:38.587Z,12.00
2018-04-11T13:58:05.892Z,7.77
2018-04-11T14:00:33.203Z,10.00
2018-04-11T14:03:00.503Z,9.77
2018-04-11T14:05:27.773Z,8.60
2018-04-11T14:07:55.033Z,10.50
2018-04-11T14:10:22.316Z,11.93
2018-04-11T14:12:49.793Z,10.07
2018-04-11T14:15:17.054Z,5.60
2018-04-11T14:17:44.357Z,12.13
2018-04-11T14:20:13.549Z,10.40
2018-04-11T14:22:40.887Z,9.80
2018-04-11T14:25:08.165Z,6.90
2018-04-11T14:27:35.461Z,6.80
2018-04-11T14:30:02.809Z,6.20
2018-04-11T14:32:30.095Z,4.30
2018-04-11T14:34:57.377Z,3.90
2018-04-11T14:37:24.653Z,5.07
2018-04-11T14:39:51.934Z,5.47
2018-04-11T14:42:19.295Z,5.50
2018-04-11T14:44:46.587Z,7.17
2018-04-11T14:47:13.935Z,6.97
2018-04-11T14:49:41.238Z,8.70
2018-04-11T14:52:08.613Z,5.20
2018-04-11T14:54:35.881Z,8.83
2018-04-11T14:57:03.221Z,8.60
2018-04-11T14:59:30.670Z,9.90
2018-04-11T15:01:58.776Z,6.23
2018-04-11T15:04:26.041Z,8.23
2018-04-11T15:06:53.385Z,7.60
2018-04-11T15:09:21.502Z,10.93
2018-04-11T15:11:48.997Z,10.57
2018-04-11T15:14:16.326Z,10.10
2018-04-11T15:16:43.597Z,17.50
2018-04-11T15:19:10.886Z,9.20
2018-04-11T15:21:38.305Z,12.70
2018-04-11T15:24:05.595Z,17.00
2018-04-11T15:26:32.875Z,18.37
2018-04-11T15:29:00.153Z,11.37
2018-04-11T15:31:27.517Z,13.17
2018-04-11T15:33:55.576Z,13.47
2018-04-11T15:36:22.869Z,14.03
2018-04-11T15:38:50.151Z,72.40
2018-04-11T15:41:17.420Z,35.03
2018-04-11T15:43:44.808Z,12.90
2018-04-11T15:46:18.018Z,13.27
2018-04-11T15:48:45.631Z,17.20
2018-04-11T15:51:12.928Z,12.47
2018-04-11T15:53:40.242Z,15.87
2018-04-11T15:56:07.601Z,9.53
2018-04-11T15:58:34.908Z,15.80
2018-04-11T16:01:02.268Z,17.17
2018-04-11T16:03:29.836Z,12.10
2018-04-11T16:05:57.159Z,9.73
2018-04-11T16:08:24.557Z,7.83
2018-04-11T16:10:51.833Z,8.30
2018-04-11T16:13:19.310Z,6.20
2018-04-11T16:15:46.588Z,8.07
2018-04-11T16:18:13.849Z,5.70
2018-04-11T16:20:41.245Z,9.10
2018-04-11T16:23:08.510Z,10.47
2018-04-11T16:25:35.836Z,11.43
2018-04-11T16:28:03.182Z,7.90
2018-04-11T16:30:30.815Z,9.13
2018-04-11T16:32:58.204Z,10.83
2018-04-11T16:35:25.478Z,7.20
2018-04-11T16:37:53.682Z,11.37
2018-04-11T16:40:20.964Z,9.97
2018-04-11T16:42:48.251Z,17.63
2018-04-11T16:45:15.536Z,7.50
2018-04-11T16:47:42.806Z,12.30
2018-04-11T16:50:10.175Z,14.13
2018-04-11T16:52:37.451Z,16.30
2018-04-11T16:55:04.741Z,7.97
2018-04-11T16:57:32.024Z,9.87
2018-04-11T16:59:59.323Z,8.83
2018-04-11T17:02:26.604Z,8.57
2018-04-11T17:04:53.880Z,9.53
2018-04-11T17:07:21.179Z,11.63
2018-04-11T17:09:48.505Z,10.27
2018-04-11T17:12:15.816Z,11.20
2018-04-11T17:14:43.161Z,10.50
2018-04-11T17:17:11.392Z,13.83
2018-04-11T17:19:38.800Z,10.83
2018-04-11T17:22:12.098Z,14.53
2018-04-11T17:24:45.177Z,12.27
2018-04-11T17:27:19.167Z,13.40
2018-04-11T17:29:52.451Z,15.80
2018-04-11T17:32:19.756Z,18.20
2018-04-11T17:34:47.081Z,22.57
2018-04-11T17:37:14.414Z,13.40
2018-04-11T17:39:41.743Z,19.50
2018-04-11T17:42:09.074Z,25.20
2018-04-11T17:44:36.394Z,12.10
2018-04-11T17:47:04.257Z,25.80
2018-04-11T17:49:31.573Z,18.93
2018-04-11T17:51:58.873Z,27.83
2018-04-11T17:54:26.193Z,24.63
2018-04-11T17:56:54.306Z,14.13
2018-04-11T17:59:21.576Z,21.97
2018-04-11T18:01:48.927Z,15.03
2018-04-11T18:04:16.205Z,11.90
2018-04-11T18:06:43.997Z,19.97
2018-04-11T18:09:12.022Z,13.30
2018-04-11T18:11:39.325Z,21.33
2018-04-11T18:14:06.642Z,31.80
2018-04-11T18:16:33.924Z,14.20
2018-04-11T18:19:01.340Z,21.43
2018-04-11T18:21:28.629Z,13.93
2018-04-11T18:23:55.959Z,16.97
2018-04-11T18:26:23.318Z,17.67
2018-04-11T18:28:50.658Z,19.47
2018-04-11T18:31:17.988Z,20.73
2018-04-11T18:33:45.308Z,18.70
2018-04-11T18:36:12.618Z,18.40
2018-04-11T18:38:39.940Z,17.63
2018-04-11T18:41:07.272Z,19.20
2018-04-11T18:43:34.583Z,15.73
2018-04-11T18:46:05.782Z,20.97
2018-04-11T18:48:33.456Z,26.80
2018-04-11T18:51:00.760Z,22.93
2018-04-11T18:53:28.752Z,28.47
2018-04-11T18:55:56.506Z,27.50
2018-04-11T18:58:23.964Z,21.77
2018-04-11T19:00:51.269Z,22.10
2018-04-11T19:03:18.674Z,15.60
2018-04-11T19:05:46.012Z,16.63
2018-04-11T19:08:13.324Z,16.90
2018-04-11T19:10:40.632Z,15.17
2018-04-11T19:13:08.006Z,15.60
2018-04-11T19:15:35.352Z,18.93
2018-04-11T19:18:02.682Z,16.50
2018-04-11T19:20:30.020Z,14.20
2018-04-11T19:22:57.309Z,19.03
2018-04-11T19:25:25.108Z,20.73
2018-04-11T19:27:52.592Z,17.23
2018-04-11T19:30:19.926Z,15.73
2018-04-11T19:32:48.123Z,16.43
2018-04-11T19:35:15.453Z,15.43
2018-04-11T19:37:42.818Z,16.10
2018-04-11T19:40:10.140Z,16.23
2018-04-11T19:42:37.442Z,14.40
2018-04-11T19:45:05.477Z,21.10
2018-04-11T19:47:32.785Z,16.53
2018-04-11T19:50:00.147Z,19.77
2018-04-11T19:52:27.420Z,28.30
2018-04-11T19:54:54.719Z,17.13
2018-04-11T19:57:22.053Z,18.50
2018-04-11T19:59:49.321Z,13.43
2018-04-11T20:02:17.114Z,17.10
2018-04-11T20:04:44.441Z,17.53
2018-04-11T20:07:11.726Z,12.77
2018-04-11T20:09:39.023Z,24.17
2018-04-11T20:12:06.798Z,13.70
2018-04-11T20:14:34.119Z,13.07
2018-04-11T20:17:01.494Z,15.00
2018-04-11T20:19:28.986Z,16.30
2018-04-11T20:21:56.400Z,14.10
2018-04-11T20:24:23.686Z,14.10
2018-04-11T20:26:51.003Z,17.90
2018-04-11T20:29:18.402Z,19.23
2018-04-11T20:31:45.694Z,13.37
2018-04-11T20:34:12.990Z,16.27
2018-04-11T20:36:42.581Z,18.50
2018-04-11T20:39:09.939Z,14.80
2018-04-11T20:41:37.241Z,17.50
2018-04-11T20:44:04.609Z,23.53
2018-04-11T20:46:31.953Z,18.73
2018-04-11T20:48:59.290Z,22.13
2018-04-11T20:51:26.598Z,20.10
2018-04-11T20:53:53.903Z,14.43
2018-04-11T20:56:21.203Z,14.83
2018-04-11T20:58:48.503Z,19.23
2018-04-11T21:01:15.806Z,21.53
2018-04-11T21:03:43.621Z,16.77
2018-04-11T21:06:10.954Z,17.60
2018-04-11T21:08:38.226Z,15.20
2018-04-11T21:11:05.551Z,16.20
2018-04-11T21:13:32.847Z,20.33
2018-04-11T21:16:00.159Z,22.30
2018-04-11T21:18:27.441Z,15.70
2018-04-11T21:20:54.881Z,18.30
2018-04-11T21:23:22.162Z,30.20
2018-04-11T21:25:49.447Z,19.80
2018-04-11T21:28:16.729Z,16.70
2018-04-11T21:30:44.031Z,18.07
2018-04-11T21:33:11.324Z,18.23
2018-04-11T21:35:38.612Z,22.33
2018-04-11T21:38:05.912Z,24.93
2018-04-11T21:40:33.364Z,23.53
2018-04-11T21:43:00.660Z,17.63
2018-04-11T21:45:27.947Z,23.60
2018-04-11T21:47:55.241Z,23.73
2018-04-11T21:50:22.529Z,33.17
2018-04-11T21:52:50.416Z,20.23
2018-04-11T21:55:17.708Z,13.97
2018-04-11T21:57:45.015Z,23.97
2018-04-11T22:00:12.294Z,16.50
2018-04-11T22:02:39.590Z,14.30
2018-04-11T22:05:06.899Z,12.53
2018-04-11T22:07:34.173Z,18.97
2018-04-11T22:10:01.479Z,11.77
2018-04-11T22:12:28.745Z,18.07
2018-04-11T22:14:56.172Z,16.60
2018-04-11T22:17:23.633Z,19.23
2018-04-11T22:19:51.776Z,16.80
2018-04-11T22:22:19.132Z,10.20
2018-04-11T22:24:46.346Z,11.73
2018-04-11T22:27:13.633Z,17.13
2018-04-11T22:29:40.931Z,15.73
2018-04-11T22:32:08.226Z,14.70
2018-04-11T22:34:35.522Z,10.63
2018-04-11T22:37:02.836Z,15.13
2018-04-11T22:39:30.175Z,16.30
2018-04-11T22:41:57.437Z,12.80
2018-04-11T22:44:24.743Z,11.00
2018-04-11T22:46:52.017Z,11.13
2018-04-11T22:49:19.986Z,12.00
2018-04-11T22:51:47.265Z,10.43
2018-04-11T22:54:14.565Z,11.63
2018-04-11T22:56:41.853Z,9.13
2018-04-11T22:59:09.121Z,11.90
2018-04-11T23:01:36.438Z,13.23
2018-04-11T23:04:03.707Z,11.23
2018-04-11T23:06:31.037Z,15.10
2018-04-11T23:08:58.338Z,11.77
2018-04-11T23:11:25.600Z,9.10
2018-04-11T23:13:52.892Z,12.67
2018-04-11T23:16:20.174Z,17.20
2018-04-11T23:18:47.448Z,11.63
2018-04-11T23:21:14.769Z,8.93
2018-04-11T23:23:42.061Z,12.80
2018-04-11T23:26:09.349Z,9.43
2018-04-11T23:28:37.485Z,6.83
2018-04-11T23:31:05.415Z,7.57
2018-04-11T23:33:32.738Z,10.60
2018-04-11T23:36:00.078Z,6.47
2018-04-11T23:38:27.332Z,11.00
2018-04-11T23:40:54.626Z,11.13
2018-04-11T23:43:21.933Z,5.87
2018-04-11T23:45:49.206Z,33.33
2018-04-11T23:48:16.519Z,10.70
2018-04-11T23:50:43.778Z,7.40
2018-04-11T23:53:11.056Z,14.10
2018-04-11T23:55:38.345Z,6.17
2018-04-11T23:58:05.641Z,12.67
